Time;durP1;ratioP1;P1;durP2;ratioP2;P2;SDS_P1;SDS_P2;PMS_P1;PMS_P2;Temp;Humidity;BMP_temperature;BMP_pressure;BME280_temperature;BME280_humidity;BME280_pressure;Samples;Min_cycle;Max_cycle;Signal;HPM_P1;HPM_P2
2021/08/01 00:02:25;;;;;;;4.40;1.48;;;15.20;80.80;;;;;;6217070;23;20024;-77
2021/08/01 00:04:52;;;;;;;4.57;1.42;;;15.30;80.60;;;;;;6219953;23;20051;-77
2021/08/01 00:07:21;;;;;;;2.83;1.50;;;15.30;80.40;;;;;;6219935;23;20043;-77
2021/08/01 00:09:48;;;;;;;5.22;1.45;;;15.30;80.70;;;;;;6217520;23;20247;-77
2021/08/01 00:12:15;;;;;;;5.00;1.58;;;15.40;80.80;;;;;;6218778;23;20059;-77
2021/08/01 00:14:43;;;;;;;4.05;1.50;;;15.50;80.50;;;;;;6215528;23;20282;-77
2021/08/01 00:17:10;;;;;;;6.30;1.52;;;15.60;80.20;;;;;;6218991;23;20034;-77
2021/08/01 00:19:37;;;;;;;3.20;1.70;;;15.40;80.20;;;;;;6222116;23;20040;-77
2021/08/01 00:22:05;;;;;;;5.40;2.00;;;15.40;80.30;;;;;;6221901;23;20024;-77
2021/08/01 00:24:34;;;;;;;4.43;1.65;;;15.40;80.30;;;;;;6217514;23;20031;-76
2021/08/01 00:27:01;;;;;;;5.05;1.83;;;15.30;80.50;;;;;;6218277;23;20044;-77
2021/08/01 00:29:30;;;;;;;4.88;1.75;;;15.30;80.60;;;;;;6219284;23;20346;-77
2021/08/01 00:31:59;;;;;;;5.47;2.20;;;15.30;80.90;;;;;;6215350;23;20334;-77
2021/08/01 00:34:26;;;;;;;3.90;1.75;;;15.40;80.70;;;;;;6215933;23;20040;-76
2021/08/01 00:36:53;;;;;;;3.75;1.75;;;15.30;80.80;;;;;;6217786;23;20024;-77
2021/08/01 00:39:21;;;;;;;4.75;1.70;;;15.30;80.90;;;;;;6216664;23;20028;-77
2021/08/01 00:41:50;;;;;;;6.57;1.90;;;15.30;80.80;;;;;;6217755;23;20022;-77
2021/08/01 00:44:17;;;;;;;3.00;1.45;;;15.30;80.90;;;;;;6216028;23;20025;-77
2021/08/01 00:46:46;;;;;;;3.78;1.35;;;15.30;80.80;;;;;;6217121;23;20043;-77
2021/08/01 00:49:13;;;;;;;6.07;1.75;;;15.30;80.80;;;;;;6216286;23;20023;-77
2021/08/01 00:51:41;;;;;;;4.97;1.63;;;15.30;80.80;;;;;;6216035;23;20087;-77
2021/08/01 00:54:09;;;;;;;2.75;1.55;;;15.20;80.90;;;;;;6215274;23;20119;-77
2021/08/01 00:56:37;;;;;;;3.75;1.88;;;15.20;81.00;;;;;;6217020;23;20012;-77
2021/08/01 00:59:05;;;;;;;3.25;1.30;;;15.20;81.10;;;;;;6215523;23;20021;-77
2021/08/01 01:01:39;;;;;;;3.25;1.50;;;15.20;80.40;;;;;;6210700;23;20297;-77
2021/08/01 01:04:20;;;;;;;4.38;1.30;;;15.10;80.50;;;;;;6216073;23;20024;-77
2021/08/01 01:06:54;;;;;;;8.52;1.65;;;15.10;80.60;;;;;;6216473;23;20020;-77
2021/08/01 01:09:27;;;;;;;2.80;1.40;;;15.20;80.60;;;;;;6218157;23;20023;-77
2021/08/01 01:11:59;;;;;;;2.58;1.00;;;15.10;80.80;;;;;;6216730;23;20029;-77
2021/08/01 01:14:30;;;;;;;2.75;1.23;;;15.10;81.00;;;;;;6240211;23;20020;-77
2021/08/01 01:17:02;;;;;;;3.67;1.52;;;15.00;81.10;;;;;;6216509;23;20036;-77
2021/08/01 01:19:52;;;;;;;4.75;1.30;;;15.10;81.30;;;;;;6215126;23;20043;-77
2021/08/01 01:22:30;;;;;;;4.07;1.52;;;15.10;81.00;;;;;;6213728;23;20029;-77
2021/08/01 01:25:22;;;;;;;3.13;1.38;;;15.20;81.20;;;;;;6215993;23;20412;-76
2021/08/01 01:28:09;;;;;;;3.60;1.60;;;15.20;81.60;;;;;;6216347;23;20024;-76
2021/08/01 01:30:44;;;;;;;4.38;1.80;;;15.10;81.60;;;;;;6215160;23;20025;-76
2021/08/01 01:33:19;;;;;;;4.18;1.55;;;15.10;81.60;;;;;;6238237;23;20035;-77
2021/08/01 01:35:53;;;;;;;3.58;1.60;;;15.10;81.70;;;;;;6217109;23;20095;-77
2021/08/01 01:38:22;;;;;;;3.47;1.35;;;15.00;81.70;;;;;;6217182;23;20067;-77
2021/08/01 01:41:08;;;;;;;3.92;1.40;;;15.00;81.60;;;;;;6217713;23;20096;-77
2021/08/01 01:43:45;;;;;;;4.30;1.52;;;15.00;81.30;;;;;;6218179;23;20332;-77
2021/08/01 01:46:17;;;;;;;3.55;1.33;;;15.10;80.90;;;;;;6218478;23;20078;-77
2021/08/01 01:48:45;;;;;;;7.07;1.45;;;15.00;81.10;;;;;;6216817;23;20271;-77
2021/08/01 01:51:14;;;;;;;3.03;1.52;;;15.10;81.00;;;;;;6219241;23;20019;-77
2021/08/01 01:53:43;;;;;;;3.78;1.73;;;15.10;81.00;;;;;;6217808;23;20283;-77
2021/08/01 01:56:15;;;;;;;4.97;1.20;;;15.10;80.80;;;;;;6218089;23;20205;-77
2021/08/01 01:58:43;;;;;;;3.38;1.80;;;15.10;80.70;;;;;;6219855;23;20024;-77
2021/08/01 02:01:12;;;;;;;4.20;1.50;;;15.10;80.80;;;;;;6215239;23;20025;-77
2021/08/01 02:03:40;;;;;;;4.65;1.67;;;15.10;80.80;;;;;;6216832;23;20028;-77
2021/08/01 02:06:09;;;;;;;2.63;1.40;;;15.10;80.80;;;;;;6217952;23;20023;-77
2021/08/01 02:09:04;;;;;;;3.05;1.23;;;15.10;81.00;;;;;;6216880;23;20075;-77
2021/08/01 02:12:00;;;;;;;4.65;1.42;;;15.00;81.10;;;;;;6218580;23;20410;-77
2021/08/01 02:14:51;;;;;;;3.40;1.27;;;15.00;81.10;;;;;;6212581;23;20051;-77
2021/08/01 02:17:23;;;;;;;3.67;1.23;;;15.00;81.20;;;;;;6215204;23;20016;-77
2021/08/01 02:19:53;;;;;;;2.13;1.20;;;15.00;81.20;;;;;;6217021;23;20033;-77
2021/08/01 02:22:23;;;;;;;3.85;1.70;;;15.00;81.20;;;;;;6214244;23;20028;-77
2021/08/01 02:24:56;;;;;;;4.70;1.50;;;15.10;81.10;;;;;;6217248;23;20020;-77
2021/08/01 02:27:23;;;;;;;;;;;15.20;80.80;;;;;;6217697;23;20020;-77
2021/08/01 02:29:54;;;;;;;3.10;1.45;;;15.20;81.00;;;;;;6242590;23;19927;-77
2021/08/01 02:32:23;;;;;;;3.22;1.77;;;15.10;81.40;;;;;;6215862;23;20382;-77
2021/08/01 02:34:51;;;;;;;4.32;1.42;;;15.10;81.80;;;;;;6217805;23;20112;-77
2021/08/01 02:37:20;;;;;;;3.13;1.77;;;15.10;81.80;;;;;;6240472;23;20016;-77
2021/08/01 02:39:48;;;;;;;5.25;1.90;;;15.10;81.90;;;;;;6217407;23;20066;-77
2021/08/01 02:42:17;;;;;;;5.40;2.00;;;15.00;82.30;;;;;;6214969;23;20012;-77
2021/08/01 02:44:45;;;;;;;6.05;2.20;;;15.10;82.10;;;;;;6217318;23;20032;-77
2021/08/01 02:47:19;;;;;;;2.90;1.63;;;15.00;82.10;;;;;;6215455;23;20031;-77
2021/08/01 02:49:49;;;;;;;3.35;1.77;;;15.00;82.40;;;;;;6216449;23;20024;-77
2021/08/01 02:52:40;;;;;;;3.45;1.67;;;15.00;82.20;;;;;;6218870;23;20036;-77
2021/08/01 02:55:12;;;;;;;3.97;1.85;;;15.10;82.10;;;;;;6217869;23;20029;-77
2021/08/01 02:57:47;;;;;;;3.92;2.00;;;15.10;82.00;;;;;;6220187;23;20197;-77
2021/08/01 03:00:16;;;;;;;3.03;1.58;;;15.10;82.10;;;;;;6212310;23;20086;-77
2021/08/01 03:02:45;;;;;;;5.97;1.95;;;15.10;82.00;;;;;;6217766;23;20019;-77
2021/08/01 03:05:13;;;;;;;3.45;1.67;;;15.20;82.00;;;;;;6218014;23;20040;-77
2021/08/01 03:07:43;;;;;;;3.28;1.58;;;15.20;81.90;;;;;;6216423;23;20237;-77
2021/08/01 03:10:11;;;;;;;4.70;1.30;;;15.20;81.60;;;;;;6214409;23;20281;-77
2021/08/01 03:12:44;;;;;;;5.97;1.52;;;15.20;81.60;;;;;;6216851;23;20013;-77
2021/08/01 03:15:14;;;;;;;3.65;1.55;;;15.20;81.70;;;;;;6217686;23;20264;-77
2021/08/01 03:17:42;;;;;;;4.18;1.92;;;15.20;81.80;;;;;;6214586;23;20201;-77
2021/08/01 03:20:12;;;;;;;2.33;1.45;;;15.10;82.00;;;;;;6218219;23;20292;-77
2021/08/01 03:22:59;;;;;;;8.18;1.63;;;15.10;82.20;;;;;;6217354;23;20032;-77
2021/08/01 03:25:38;;;;;;;3.88;1.90;;;15.10;82.30;;;;;;6216908;23;20051;-77
2021/08/01 03:28:07;;;;;;;6.90;1.85;;;15.10;82.30;;;;;;6218299;23;20212;-77
2021/08/01 03:30:35;;;;;;;4.13;1.88;;;15.10;82.20;;;;;;6214553;23;20016;-77
2021/08/01 03:33:02;;;;;;;4.80;1.90;;;15.10;82.00;;;;;;6217593;23;20036;-77
2021/08/01 03:35:33;;;;;;;4.18;1.52;;;15.10;82.00;;;;;;6218215;23;20078;-77
2021/08/01 03:38:25;;;;;;;3.30;1.70;;;15.10;82.10;;;;;;6217695;23;20031;-77
2021/08/01 03:41:15;;;;;;;3.90;1.65;;;15.10;82.00;;;;;;6212476;23;20102;-77
2021/08/01 03:43:44;;;;;;;6.22;1.90;;;15.10;81.90;;;;;;6218142;23;20204;-77
2021/08/01 03:46:11;;;;;;;4.82;1.58;;;15.10;82.10;;;;;;6219392;23;20069;-77
2021/08/01 03:48:38;;;;;;;3.00;1.70;;;15.10;82.20;;;;;;6219819;23;20080;-77
2021/08/01 03:51:06;;;;;;;2.83;1.45;;;15.00;82.60;;;;;;6216942;23;20025;-77
2021/08/01 03:53:33;;;;;;;3.00;1.65;;;15.00;82.80;;;;;;6215544;23;20078;-77
2021/08/01 03:56:03;;;;;;;6.57;1.77;;;15.00;82.90;;;;;;6221072;23;20017;-77
2021/08/01 03:58:32;;;;;;;4.32;1.35;;;15.00;82.80;;;;;;6216208;23;20025;-77
2021/08/01 04:01:01;;;;;;;3.83;1.73;;;15.00;82.90;;;;;;6212895;23;20059;-78
2021/08/01 04:03:28;;;;;;;3.55;1.35;;;15.00;82.70;;;;;;6215039;23;20032;-77
2021/08/01 04:05:55;;;;;;;5.13;1.60;;;15.00;82.60;;;;;;6215873;23;20070;-77
2021/08/01 04:08:23;;;;;;;7.53;1.83;;;15.00;82.70;;;;;;6217355;23;20024;-77
2021/08/01 04:10:50;;;;;;;4.05;1.35;;;15.00;82.50;;;;;;6217691;23;20016;-77
2021/08/01 04:13:17;;;;;;;5.10;1.73;;;14.90;82.50;;;;;;6215505;23;20035;-78
2021/08/01 04:15:46;;;;;;;4.18;1.70;;;14.90;82.60;;;;;;6217958;23;20016;-77
2021/08/01 04:18:15;;;;;;;4.47;1.60;;;14.80;82.70;;;;;;6214565;23;20024;-77
2021/08/01 04:20:42;;;;;;;5.05;1.25;;;14.90;82.70;;;;;;6215575;23;20557;-77
2021/08/01 04:23:10;;;;;;;3.40;1.58;;;14.90;82.60;;;;;;6216834;23;20043;-77
2021/08/01 04:25:37;;;;;;;3.10;1.63;;;14.90;82.60;;;;;;6215185;23;20027;-77
2021/08/01 04:28:05;;;;;;;4.97;1.85;;;15.00;82.50;;;;;;6217773;23;20055;-77
2021/08/01 04:30:32;;;;;;;2.63;1.55;;;15.00;82.30;;;;;;6218516;23;20344;-77
2021/08/01 04:32:59;;;;;;;3.08;1.23;;;15.10;82.20;;;;;;6218012;23;20047;-77
2021/08/01 04:35:28;;;;;;;4.13;1.42;;;15.10;82.20;;;;;;6216677;23;20071;-77
2021/08/01 04:37:56;;;;;;;4.38;1.75;;;15.20;81.90;;;;;;6218574;23;20024;-77
2021/08/01 04:40:23;;;;;;;3.20;1.80;;;15.20;81.80;;;;;;6215993;23;20083;-77
2021/08/01 04:42:51;;;;;;;4.25;1.80;;;15.20;81.90;;;;;;6217507;23;20024;-77
2021/08/01 04:45:18;;;;;;;4.00;1.73;;;15.30;81.60;;;;;;6218509;23;20063;-77
2021/08/01 04:47:45;;;;;;;6.18;2.13;;;15.30;81.40;;;;;;6217308;23;20039;-77
2021/08/01 04:50:12;;;;;;;4.13;1.92;;;15.30;81.50;;;;;;6218481;23;20029;-77
2021/08/01 04:52:41;;;;;;;3.20;1.48;;;15.20;81.60;;;;;;6216496;23;20021;-77
2021/08/01 04:55:09;;;;;;;7.57;1.98;;;15.30;81.40;;;;;;6218585;23;20059;-77
2021/08/01 04:57:37;;;;;;;4.53;1.30;;;15.10;81.80;;;;;;6216171;23;20256;-77
2021/08/01 05:00:06;;;;;;;5.28;1.70;;;15.10;81.90;;;;;;6215148;23;20024;-77
2021/08/01 05:02:33;;;;;;;3.83;1.60;;;15.00;82.20;;;;;;6218704;23;20044;-77
2021/08/01 05:05:01;;;;;;;3.85;1.52;;;15.00;82.10;;;;;;6218767;23;20024;-77
2021/08/01 05:07:32;;;;;;;4.38;1.40;;;15.10;82.10;;;;;;6212283;23;20024;-78
2021/08/01 05:10:01;;;;;;;2.83;1.20;;;15.10;82.10;;;;;;6217960;23;20080;-77
2021/08/01 05:12:33;;;;;;;5.43;2.03;;;15.10;82.00;;;;;;6217942;23;20219;-77
2021/08/01 05:15:04;;;;;;;3.33;1.52;;;15.10;81.90;;;;;;6215322;23;20028;-77
2021/08/01 05:17:32;;;;;;;4.25;1.58;;;15.10;81.90;;;;;;6218703;23;20459;-77
2021/08/01 05:19:59;;;;;;;3.95;1.63;;;15.20;81.70;;;;;;6218328;23;20119;-77
2021/08/01 05:22:26;;;;;;;2.65;1.63;;;15.20;81.60;;;;;;6216966;23;20066;-77
2021/08/01 05:24:54;;;;;;;3.63;1.80;;;15.30;81.50;;;;;;6217671;23;20025;-77
2021/08/01 05:27:22;;;;;;;2.53;1.60;;;15.40;81.50;;;;;;6215866;23;20323;-77
2021/08/01 05:29:49;;;;;;;4.82;1.42;;;15.50;81.50;;;;;;6215983;23;20024;-77
2021/08/01 05:32:17;;;;;;;3.88;1.95;;;15.40;81.80;;;;;;6216132;23;20024;-77
2021/08/01 05:34:44;;;;;;;3.72;2.10;;;15.60;81.30;;;;;;6215574;23;20021;-77
2021/08/01 05:37:11;;;;;;;2.55;1.77;;;15.60;81.10;;;;;;6216376;23;20288;-77
2021/08/01 05:39:38;;;;;;;3.55;1.88;;;15.60;80.90;;;;;;6214877;23;20324;-77
2021/08/01 05:42:06;;;;;;;3.63;1.75;;;15.70;80.40;;;;;;6213691;23;20092;-77
2021/08/01 05:44:34;;;;;;;4.32;1.55;;;15.80;80.40;;;;;;6217903;23;20024;-77
2021/08/01 05:47:06;;;;;;;4.32;2.08;;;15.90;80.00;;;;;;6215273;23;20043;-77
2021/08/01 05:49:34;;;;;;;6.35;2.03;;;16.10;79.70;;;;;;6218077;23;20016;-77
2021/08/01 05:52:01;;;;;;;4.13;2.00;;;16.10;79.40;;;;;;6217582;23;20254;-77
2021/08/01 05:54:30;;;;;;;8.50;2.10;;;16.20;79.00;;;;;;6217393;23;20047;-77
2021/08/01 05:56:57;;;;;;;4.00;1.65;;;16.30;79.00;;;;;;6217690;23;20028;-77
2021/08/01 05:59:25;;;;;;;8.50;2.28;;;16.40;78.80;;;;;;6217248;23;20028;-77
2021/08/01 06:01:53;;;;;;;4.20;2.10;;;16.40;78.60;;;;;;6213748;23;20201;-78
2021/08/01 06:04:21;;;;;;;3.17;1.67;;;16.40;78.60;;;;;;6215100;23;20029;-77
2021/08/01 06:06:48;;;;;;;5.72;2.05;;;16.50;78.40;;;;;;6218316;23;20004;-77
2021/08/01 06:09:15;;;;;;;4.18;2.03;;;16.60;77.80;;;;;;6217310;23;20312;-77
2021/08/01 06:11:42;;;;;;;3.50;1.77;;;16.70;77.60;;;;;;6219710;23;20044;-77
2021/08/01 06:14:10;;;;;;;5.03;1.77;;;16.80;76.80;;;;;;6216013;23;20442;-77
2021/08/01 06:16:37;;;;;;;5.63;1.67;;;17.00;76.40;;;;;;6216426;23;20024;-78
2021/08/01 06:19:05;;;;;;;4.03;1.88;;;17.10;75.90;;;;;;6216921;23;20024;-78
2021/08/01 06:21:33;;;;;;;3.50;2.05;;;17.20;75.90;;;;;;6217497;23;20027;-77
2021/08/01 06:24:00;;;;;;;3.20;1.95;;;17.40;75.00;;;;;;6215755;23;20059;-78
2021/08/01 06:26:32;;;;;;;4.15;1.52;;;17.50;74.50;;;;;;6219442;23;20044;-77
2021/08/01 06:28:59;;;;;;;5.38;1.70;;;17.60;73.30;;;;;;6219821;23;20036;-78
2021/08/01 06:31:27;;;;;;;3.33;1.65;;;17.90;72.80;;;;;;6216571;23;20029;-77
2021/08/01 06:33:54;;;;;;;4.22;1.85;;;18.00;72.90;;;;;;6221383;23;20102;-77
2021/08/01 06:36:22;;;;;;;6.40;1.85;;;18.20;72.20;;;;;;6220913;23;20016;-77
2021/08/01 06:38:50;;;;;;;3.50;1.90;;;18.20;72.40;;;;;;6218716;23;20409;-77
2021/08/01 06:41:17;;;;;;;3.08;1.67;;;18.20;71.30;;;;;;6217735;23;20047;-78
2021/08/01 06:43:44;;;;;;;4.82;1.65;;;18.40;71.50;;;;;;6219631;23;20035;-77
2021/08/01 06:46:11;;;;;;;3.78;2.22;;;18.60;70.70;;;;;;6218311;23;20020;-77
2021/08/01 06:48:39;;;;;;;3.65;1.52;;;18.40;70.90;;;;;;6218123;23;20048;-77
2021/08/01 06:51:07;;;;;;;3.88;1.67;;;18.60;69.90;;;;;;6219310;23;20080;-77
2021/08/01 06:53:35;;;;;;;4.22;1.73;;;18.70;70.50;;;;;;6219026;23;20024;-77
2021/08/01 06:56:02;;;;;;;3.88;1.70;;;18.90;70.00;;;;;;6218009;23;20028;-77
2021/08/01 06:58:30;;;;;;;6.03;1.67;;;18.90;70.10;;;;;;6221465;23;20005;-78
2021/08/01 07:00:57;;;;;;;3.70;1.45;;;18.80;70.10;;;;;;6212528;23;20080;-78
2021/08/01 07:03:27;;;;;;;3.35;1.50;;;19.10;69.50;;;;;;6217832;23;20040;-77
2021/08/01 07:05:54;;;;;;;;;;;19.30;69.30;;;;;;6219978;23;20024;-77
2021/08/01 07:08:22;;;;;;;5.30;1.60;;;19.30;69.30;;;;;;6244546;23;19920;-77
2021/08/01 07:10:50;;;;;;;4.13;1.70;;;19.40;69.10;;;;;;6218097;23;20029;-77
2021/08/01 07:13:18;;;;;;;3.65;1.70;;;19.30;69.30;;;;;;6215770;23;20319;-77
2021/08/01 07:15:45;;;;;;;3.33;1.83;;;19.20;69.70;;;;;;6217569;23;20015;-78
2021/08/01 07:18:12;;;;;;;4.18;1.77;;;19.00;70.20;;;;;;6217191;23;20070;-77
2021/08/01 07:20:40;;;;;;;4.88;1.50;;;19.10;70.10;;;;;;6215342;23;20029;-77
2021/08/01 07:23:09;;;;;;;7.93;1.77;;;19.10;70.30;;;;;;6217826;23;20028;-77
2021/08/01 07:25:37;;;;;;;10.77;2.10;;;19.30;70.00;;;;;;6218401;23;20015;-78
2021/08/01 07:28:06;;;;;;;5.22;1.80;;;19.30;70.00;;;;;;6219684;23;20028;-78
2021/08/01 07:30:40;;;;;;;3.38;1.75;;;19.10;70.00;;;;;;6216810;23;20087;-77
2021/08/01 07:33:07;;;;;;;3.55;1.83;;;19.20;70.30;;;;;;6216907;23;20051;-78
2021/08/01 07:35:36;;;;;;;4.60;1.92;;;19.10;70.70;;;;;;6215331;23;20025;-78
2021/08/01 07:38:03;;;;;;;4.32;1.73;;;18.90;71.30;;;;;;6219088;23;20327;-78
2021/08/01 07:40:30;;;;;;;4.18;2.10;;;18.90;71.60;;;;;;6218051;23;20196;-78
2021/08/01 07:42:57;;;;;;;3.70;1.92;;;18.70;72.30;;;;;;6217323;23;20428;-78
2021/08/01 07:45:30;;;;;;;7.00;2.03;;;19.00;72.50;;;;;;6217412;23;20033;-77
2021/08/01 07:47:58;;;;;;;4.60;1.63;;;19.00;71.80;;;;;;6217252;23;20338;-77
2021/08/01 07:50:25;;;;;;;5.70;1.85;;;19.00;72.30;;;;;;6217799;23;20032;-77
2021/08/01 07:52:53;;;;;;;5.53;1.92;;;19.20;71.60;;;;;;6220373;23;20091;-77
2021/08/01 07:55:20;;;;;;;4.25;1.92;;;19.40;71.60;;;;;;6223542;23;20043;-78
2021/08/01 07:57:49;;;;;;;2.78;1.60;;;20.00;70.10;;;;;;6218868;23;20229;-77
2021/08/01 08:00:19;;;;;;;5.78;1.98;;;20.00;70.60;;;;;;6216376;23;20024;-78
2021/08/01 08:02:48;;;;;;;4.38;1.88;;;19.90;70.10;;;;;;6217623;23;20313;-78
2021/08/01 08:05:16;;;;;;;4.73;1.60;;;20.00;69.70;;;;;;6215006;23;20338;-78
2021/08/01 08:07:43;;;;;;;4.18;1.83;;;19.90;70.40;;;;;;6218287;23;20021;-77
2021/08/01 08:10:11;;;;;;;6.35;2.05;;;20.20;69.00;;;;;;6220357;23;20354;-77
2021/08/01 08:12:39;;;;;;;4.03;1.92;;;20.20;69.20;;;;;;6218356;23;20088;-78
2021/08/01 08:15:08;;;;;;;5.53;1.98;;;20.30;69.00;;;;;;6218993;23;20123;-77
2021/08/01 08:17:36;;;;;;;3.75;1.80;;;20.30;68.90;;;;;;6221439;23;20072;-77
2021/08/01 08:20:06;;;;;;;6.70;1.95;;;20.60;68.30;;;;;;6219677;23;20301;-78
2021/08/01 08:22:34;;;;;;;5.57;2.10;;;20.80;68.00;;;;;;6219753;23;20021;-78
2021/08/01 08:25:01;;;;;;;6.13;2.00;;;21.00;67.50;;;;;;6220033;23;20276;-78
2021/08/01 08:27:31;;;;;;;7.65;2.10;;;20.90;67.40;;;;;;6221149;23;20020;-77
2021/08/01 08:29:59;;;;;;;4.70;2.50;;;21.10;67.10;;;;;;6219428;23;20025;-78
2021/08/01 08:32:26;;;;;;;5.60;2.15;;;20.90;67.20;;;;;;6218207;23;20034;-75
2021/08/01 08:34:53;;;;;;;5.00;2.60;;;21.10;67.60;;;;;;6217901;23;20076;-75
2021/08/01 08:37:22;;;;;;;6.30;2.45;;;21.10;66.50;;;;;;6221070;23;20071;-78
2021/08/01 08:39:51;;;;;;;5.80;2.58;;;21.10;66.30;;;;;;6223313;23;20075;-78
2021/08/01 08:42:19;;;;;;;5.50;2.22;;;20.70;67.50;;;;;;6225018;23;20016;-78
2021/08/01 08:44:46;;;;;;;7.25;2.75;;;20.90;67.40;;;;;;6222760;23;20338;-77
2021/08/01 08:47:20;;;;;;;6.05;2.90;;;20.90;66.90;;;;;;6221552;23;20079;-77
2021/08/01 08:49:49;;;;;;;5.38;2.88;;;20.80;66.80;;;;;;6217846;23;20304;-77
2021/08/01 08:52:18;;;;;;;6.38;2.65;;;20.70;67.00;;;;;;6221015;23;20016;-78
2021/08/01 08:54:49;;;;;;;5.88;2.47;;;20.60;67.90;;;;;;6215580;23;20067;-78
2021/08/01 08:57:27;;;;;;;6.80;2.85;;;20.80;67.50;;;;;;6219958;23;20022;-78
2021/08/01 09:00:00;;;;;;;6.80;3.30;;;21.20;66.00;;;;;;6223460;23;20317;-78
2021/08/01 09:02:31;;;;;;;7.47;3.53;;;21.50;65.40;;;;;;6218133;23;20048;-78
2021/08/01 09:04:59;;;;;;;5.35;3.08;;;21.50;65.20;;;;;;6218290;23;20331;-78
2021/08/01 09:07:26;;;;;;;8.98;3.42;;;21.70;64.00;;;;;;6216391;23;20059;-75
2021/08/01 09:09:56;;;;;;;8.93;3.88;;;21.80;64.10;;;;;;6216761;23;20029;-78
2021/08/01 09:12:23;;;;;;;7.57;4.03;;;22.10;63.20;;;;;;6216922;23;20075;-76
2021/08/01 09:15:09;;;;;;;8.20;3.83;;;22.60;61.20;;;;;;6218397;23;20024;-76
2021/08/01 09:17:38;;;;;;;6.75;3.58;;;22.60;59.10;;;;;;6218697;23;20058;-76
2021/08/01 09:20:18;;;;;;;9.47;4.53;;;22.60;58.70;;;;;;6219186;23;20096;-76
2021/08/01 09:23:06;;;;;;;8.30;3.67;;;22.60;58.20;;;;;;6215434;23;20041;-76
2021/08/01 09:25:37;;;;;;;7.22;3.40;;;22.30;58.00;;;;;;6217669;23;20075;-76
2021/08/01 09:28:13;;;;;;;5.18;2.72;;;22.10;59.00;;;;;;6216462;23;20031;-76
2021/08/01 09:30:47;;;;;;;7.25;3.22;;;22.20;59.20;;;;;;6220099;23;20016;-76
2021/08/01 09:33:17;;;;;;;5.57;2.90;;;22.10;59.30;;;;;;6219281;23;20024;-76
2021/08/01 09:35:44;;;;;;;;;;;22.30;58.60;;;;;;6221976;23;20024;-77
2021/08/01 09:38:13;;;;;;;5.85;3.08;;;21.90;61.00;;;;;;6222507;23;19971;-78
2021/08/01 09:40:42;;;;;;;6.75;3.35;;;21.80;61.10;;;;;;6222373;23;20017;-77
2021/08/01 09:43:12;;;;;;;8.70;3.10;;;21.70;61.70;;;;;;6221074;23;20085;-77
2021/08/01 09:45:40;;;;;;;5.53;2.92;;;21.70;61.40;;;;;;6220765;23;20025;-76
2021/08/01 09:48:18;;;;;;;5.90;3.13;;;21.60;61.80;;;;;;6222210;23;20022;-77
2021/08/01 09:50:59;;;;;;;7.20;3.47;;;22.00;61.50;;;;;;6220093;23;20346;-76
2021/08/01 09:53:27;;;;;;;5.93;2.90;;;22.40;60.10;;;;;;6221883;23;20017;-78
2021/08/01 09:56:17;;;;;;;5.22;2.53;;;22.20;60.80;;;;;;6220459;23;20029;-77
2021/08/01 09:58:45;;;;;;;6.90;3.20;;;22.70;59.80;;;;;;6221364;23;20047;-77
2021/08/01 10:01:12;;;;;;;5.72;2.70;;;22.50;57.70;;;;;;6218336;23;20039;-77
2021/08/01 10:03:41;;;;;;;6.35;2.53;;;22.60;58.80;;;;;;6222738;23;20016;-76
2021/08/01 10:06:10;;;;;;;3.17;2.20;;;22.90;57.20;;;;;;6222059;23;20296;-77
2021/08/01 10:08:40;;;;;;;4.45;2.33;;;22.90;56.70;;;;;;6222486;23;20055;-77
2021/08/01 10:11:16;;;;;;;5.10;2.35;;;22.60;56.20;;;;;;6223016;23;20020;-77
2021/08/01 10:13:45;;;;;;;5.72;2.88;;;22.90;55.80;;;;;;6223192;23;20024;-77
2021/08/01 10:16:13;;;;;;;4.95;2.30;;;22.90;56.70;;;;;;6221122;23;20017;-77
2021/08/01 10:18:42;;;;;;;5.10;2.17;;;23.40;55.00;;;;;;6224124;23;20021;-76
2021/08/01 10:21:13;;;;;;;4.32;2.33;;;23.50;53.90;;;;;;6223264;23;20079;-76
2021/08/01 10:23:44;;;;;;;4.05;2.00;;;23.60;53.40;;;;;;6218984;23;20029;-76
2021/08/01 10:26:12;;;;;;;4.50;2.40;;;22.80;54.90;;;;;;6219978;23;20034;-76
2021/08/01 10:28:49;;;;;;;5.65;2.40;;;22.40;57.10;;;;;;6222018;23;20279;-76
2021/08/01 10:31:18;;;;;;;6.00;3.03;;;22.60;56.10;;;;;;6223920;23;20376;-79
2021/08/01 10:33:57;;;;;;;5.57;3.13;;;23.20;55.60;;;;;;6221303;23;20024;-77
2021/08/01 10:36:27;;;;;;;4.85;2.90;;;23.50;54.70;;;;;;6216069;23;20036;-77
2021/08/01 10:38:59;;;;;;;;;;;24.00;54.70;;;;;;6218386;23;20031;-77
2021/08/01 10:41:33;;;;;;;6.65;2.63;;;23.80;52.80;;;;;;6219384;23;19927;-77
2021/08/01 10:44:07;;;;;;;6.43;2.92;;;24.60;52.00;;;;;;6218443;23;20332;-77
2021/08/01 10:46:36;;;;;;;5.80;2.88;;;25.20;50.20;;;;;;6221318;23;20017;-77
2021/08/01 10:49:04;;;;;;;4.47;2.75;;;24.90;50.30;;;;;;6220357;23;20012;-76
2021/08/01 10:51:32;;;;;;;6.30;2.40;;;24.50;51.80;;;;;;6219785;23;20028;-77
2021/08/01 10:54:34;;;;;;;3.75;2.05;;;23.70;53.00;;;;;;6220716;23;20020;-77
2021/08/01 10:57:20;;;;;;;3.25;1.90;;;23.60;53.50;;;;;;6219224;23;20089;-77
2021/08/01 11:00:11;;;;;;;6.85;2.75;;;25.60;48.70;;;;;;6217602;23;20080;-77
2021/08/01 11:02:38;;;;;;;4.65;1.77;;;26.70;45.30;;;;;;6220210;23;20024;-77
2021/08/01 11:05:33;;;;;;;3.60;1.80;;;27.00;44.30;;;;;;6219289;23;20340;-77
2021/08/01 11:08:01;;;;;;;3.92;2.40;;;27.10;43.80;;;;;;6199495;23;20031;-77
2021/08/01 11:10:32;;;;;;;3.28;1.55;;;27.40;43.20;;;;;;6220446;23;20479;-80
2021/08/01 11:12:59;;;;;;;5.00;1.83;;;28.70;39.10;;;;;;6225144;23;20034;-77
2021/08/01 11:15:47;;;;;;;4.55;1.30;;;29.10;40.00;;;;;;6222354;23;20339;-77
2021/08/01 11:18:15;;;;;;;4.05;1.90;;;29.00;39.00;;;;;;6219183;23;20016;-77
2021/08/01 11:20:54;;;;;;;3.45;1.42;;;28.30;40.70;;;;;;6215947;23;20016;-78
2021/08/01 11:23:21;;;;;;;3.50;1.40;;;28.10;42.70;;;;;;6215285;23;20020;-78
2021/08/01 11:26:11;;;;;;;3.80;1.50;;;27.20;42.80;;;;;;6220702;23;20075;-77
2021/08/01 11:28:39;;;;;;;2.72;1.45;;;29.00;40.20;;;;;;6213779;23;20080;-78
2021/08/01 11:31:24;;;;;;;2.35;1.40;;;27.10;41.30;;;;;;6215794;23;20029;-78
2021/08/01 11:33:53;;;;;;;2.30;1.30;;;25.60;44.50;;;;;;6222549;23;20196;-77
2021/08/01 11:36:31;;;;;;;4.00;1.43;;;25.20;45.70;;;;;;6217580;23;20063;-77
2021/08/01 11:39:08;;;;;;;3.92;1.75;;;24.50;48.10;;;;;;6216642;23;20244;-77
2021/08/01 11:41:39;;;;;;;2.85;1.38;;;24.10;49.40;;;;;;6219030;23;20358;-77
2021/08/01 11:44:08;;;;;;;3.05;1.45;;;24.00;50.60;;;;;;6223516;23;20063;-77
2021/08/01 11:47:03;;;;;;;3.28;1.67;;;24.60;49.10;;;;;;6219011;23;20080;-77
2021/08/01 11:49:34;;;;;;;4.28;1.42;;;24.90;48.60;;;;;;6231792;23;20024;-77
2021/08/01 11:52:03;;;;;;;2.47;1.38;;;25.30;47.80;;;;;;6221244;23;20187;-77
2021/08/01 11:54:33;;;;;;;2.97;1.60;;;25.00;48.30;;;;;;6223292;23;20312;-77
2021/08/01 11:57:02;;;;;;;2.97;1.20;;;24.70;49.20;;;;;;6222172;23;20028;-77
2021/08/01 11:59:31;;;;;;;3.35;1.20;;;24.70;49.50;;;;;;6219558;23;20031;-77
2021/08/01 12:02:01;;;;;;;2.97;1.42;;;24.30;50.50;;;;;;6216698;23;20079;-77
2021/08/01 12:04:29;;;;;;;3.28;1.25;;;24.20;50.70;;;;;;6219538;23;20391;-77
2021/08/01 12:06:57;;;;;;;3.42;1.48;;;24.00;50.50;;;;;;6218338;23;20016;-78
2021/08/01 12:09:26;;;;;;;2.80;1.40;;;23.70;51.20;;;;;;6220730;23;20020;-77
2021/08/01 12:11:55;;;;;;;3.22;1.30;;;23.60;51.80;;;;;;6217283;23;20092;-77
2021/08/01 12:14:28;;;;;;;2.45;1.35;;;23.60;52.30;;;;;;6215897;23;20035;-77
2021/08/01 12:16:59;;;;;;;3.58;1.25;;;23.40;52.90;;;;;;6220033;23;20080;-77
2021/08/01 12:19:30;;;;;;;2.47;1.10;;;23.70;51.40;;;;;;6220214;23;20081;-77
2021/08/01 12:22:00;;;;;;;8.50;1.30;;;24.00;50.00;;;;;;6220177;23;20016;-77
2021/08/01 12:24:34;;;;;;;3.10;1.30;;;24.10;50.00;;;;;;6218592;23;20530;-76
2021/08/01 12:27:06;;;;;;;2.85;0.90;;;24.50;48.30;;;;;;6214615;23;20025;-77
2021/08/01 12:29:36;;;;;;;2.08;1.10;;;26.10;45.30;;;;;;6217890;23;20029;-77
2021/08/01 12:32:21;;;;;;;4.05;1.25;;;27.10;42.90;;;;;;6218282;23;20071;-77
2021/08/01 12:34:51;;;;;;;1.08;0.80;;;27.90;40.80;;;;;;6218040;23;20408;-77
2021/08/01 12:37:19;;;;;;;6.53;1.15;;;28.90;38.90;;;;;;6219919;23;20028;-77
2021/08/01 12:39:48;;;;;;;2.67;0.90;;;30.90;36.10;;;;;;6221265;23;20012;-77
2021/08/01 12:42:15;;;;;;;3.08;1.42;;;32.40;33.00;;;;;;6221251;23;20023;-77
2021/08/01 12:44:54;;;;;;;2.47;0.80;;;33.00;31.30;;;;;;6220629;23;20024;-77
2021/08/01 12:47:22;;;;;;;3.05;0.60;;;32.10;31.80;;;;;;6220888;23;20080;-77
2021/08/01 12:49:51;;;;;;;1.67;0.80;;;32.60;31.40;;;;;;6220698;23;20032;-77
2021/08/01 12:52:23;;;;;;;2.10;0.80;;;33.30;29.70;;;;;;6221945;23;20036;-77
2021/08/01 12:54:52;;;;;;;1.65;0.82;;;32.00;30.80;;;;;;6222104;23;20020;-77
2021/08/01 12:57:20;;;;;;;1.83;0.93;;;31.40;32.10;;;;;;6222917;23;20024;-77
2021/08/01 13:00:13;;;;;;;0.75;0.55;;;30.50;34.00;;;;;;6222982;23;20031;-77
2021/08/01 13:02:41;;;;;;;2.38;0.90;;;31.80;32.30;;;;;;6222520;23;20067;-76
2021/08/01 13:05:20;;;;;;;2.95;0.73;;;31.10;33.20;;;;;;6219927;23;20070;-76
2021/08/01 13:07:48;;;;;;;2.25;0.80;;;31.00;33.50;;;;;;6221058;23;20025;-77